Time;durP1;ratioP1;P1;durP2;ratioP2;P2;SDS_P1;SDS_P2;PMS_P1;PMS_P2;Temp;Humidity;BMP_temperature;BMP_pressure;BME280_temperature;BME280_humidity;BME280_pressure;Samples;Min_cycle;Max_cycle;Signal;HPM_P1;HPM_P2
2021/10/13 00:00:56;;;;;;;1.73;1.00;;;;;;;;;;4530480;28;20037;-62
2021/10/13 00:03:07;;;;;;;2.50;0.93;;;;;;;;;;4529887;28;20042;-62
2021/10/13 00:05:17;;;;;;;1.60;1.10;;;;;;;;;;4529423;28;28486;-62
2021/10/13 00:07:27;;;;;;;1.10;0.80;;;;;;;;;;4528752;28;20044;-62
2021/10/13 00:09:38;;;;;;;2.60;1.17;;;;;;;;;;4528643;28;20120;-62
2021/10/13 00:11:48;;;;;;;2.23;1.10;;;;;;;;;;4511722;28;26034;-62
2021/10/13 00:14:00;;;;;;;1.90;1.03;;;;;;;;;;4528515;28;20235;-62
2021/10/13 00:16:10;;;;;;;2.13;1.08;;;;;;;;;;4528031;28;20037;-63
2021/10/13 00:18:21;;;;;;;1.83;1.07;;;;;;;;;;4532082;28;20596;-62
2021/10/13 00:20:31;;;;;;;2.27;1.20;;;;;;;;;;4529658;28;20143;-62
2021/10/13 00:22:42;;;;;;;2.27;1.10;;;;;;;;;;4530472;28;20115;-61
2021/10/13 00:24:52;;;;;;;2.00;0.93;;;;;;;;;;4531244;28;20029;-61
2021/10/13 00:27:03;;;;;;;2.57;1.20;;;;;;;;;;4530337;28;20036;-61
2021/10/13 00:29:13;;;;;;;1.43;0.87;;;;;;;;;;4529634;28;20029;-62
2021/10/13 00:31:24;;;;;;;1.93;1.00;;;;;;;;;;4529143;28;20024;-62
2021/10/13 00:33:34;;;;;;;1.13;0.80;;;;;;;;;;4529537;28;20619;-62
2021/10/13 00:35:45;;;;;;;2.47;1.30;;;;;;;;;;4514886;28;20029;-62
2021/10/13 00:37:55;;;;;;;2.30;1.00;;;;;;;;;;4529897;28;20584;-62
2021/10/13 00:40:06;;;;;;;2.63;1.17;;;;;;;;;;4511936;28;20041;-62
2021/10/13 00:42:17;;;;;;;3.05;1.20;;;;;;;;;;4528257;28;20044;-62
2021/10/13 00:44:27;;;;;;;1.60;0.97;;;;;;;;;;4528307;28;27503;-62
2021/10/13 00:46:38;;;;;;;1.40;1.00;;;;;;;;;;4530026;28;20037;-61
2021/10/13 00:48:48;;;;;;;2.10;1.10;;;;;;;;;;4511450;28;20049;-62
2021/10/13 00:50:58;;;;;;;1.90;1.00;;;;;;;;;;4528597;28;20459;-62
2021/10/13 00:53:09;;;;;;;2.33;0.93;;;;;;;;;;4528672;28;20678;-62
2021/10/13 00:55:21;;;;;;;1.45;1.10;;;;;;;;;;4511245;28;20038;-62
2021/10/13 00:57:31;;;;;;;2.67;1.10;;;;;;;;;;4512284;28;20425;-62
2021/10/13 00:59:42;;;;;;;2.17;1.20;;;;;;;;;;4530804;28;20777;-61
2021/10/13 01:02:03;;;;;;;1.50;0.93;;;;;;;;;;4529207;28;20036;-62
2021/10/13 01:04:28;;;;;;;2.28;1.13;;;;;;;;;;4528458;28;20033;-62
2021/10/13 01:07:02;;;;;;;2.42;0.98;;;;;;;;;;4528584;28;20045;-61
2021/10/13 01:09:25;;;;;;;2.33;1.15;;;;;;;;;;4512313;28;20044;-62
2021/10/13 01:12:07;;;;;;;1.77;0.90;;;;;;;;;;4509355;28;20040;-62
2021/10/13 01:14:48;;;;;;;3.60;1.20;;;;;;;;;;4529049;28;20045;-62
2021/10/13 01:17:08;;;;;;;1.70;1.00;;;;;;;;;;4529331;28;20033;-62
2021/10/13 01:19:20;;;;;;;1.90;0.80;;;;;;;;;;4530140;28;20029;-62
2021/10/13 01:21:47;;;;;;;2.70;1.20;;;;;;;;;;4527266;28;20047;-62
2021/10/13 01:24:20;;;;;;;1.75;1.02;;;;;;;;;;4510776;28;20029;-62
2021/10/13 01:26:37;;;;;;;1.63;0.80;;;;;;;;;;4529213;28;20072;-62
2021/10/13 01:28:49;;;;;;;1.42;0.98;;;;;;;;;;4511946;28;20148;-62
2021/10/13 01:31:18;;;;;;;2.63;1.00;;;;;;;;;;4511911;28;20141;-62
2021/10/13 01:33:35;;;;;;;2.10;0.95;;;;;;;;;;4527830;28;20111;-62
2021/10/13 01:35:49;;;;;;;2.15;1.20;;;;;;;;;;4521126;28;20045;-62
2021/10/13 01:38:05;;;;;;;1.40;0.98;;;;;;;;;;4521446;28;20040;-62
2021/10/13 01:40:18;;;;;;;3.22;1.00;;;;;;;;;;4523230;28;20033;-61
2021/10/13 01:42:30;;;;;;;2.30;1.00;;;;;;;;;;4527370;28;20193;-62
2021/10/13 01:44:41;;;;;;;2.08;1.00;;;;;;;;;;4510768;28;20030;-63
2021/10/13 01:46:51;;;;;;;1.77;1.00;;;;;;;;;;4527661;28;20521;-62
2021/10/13 01:49:03;;;;;;;2.03;1.10;;;;;;;;;;4529797;28;22776;-62
2021/10/13 01:51:15;;;;;;;2.72;1.08;;;;;;;;;;4526162;28;20056;-62
2021/10/13 01:53:25;;;;;;;;;;;;;;;;;;4512389;28;20026;-62
2021/10/13 01:55:36;;;;;;;1.48;0.80;;;;;;;;;;4511443;28;19918;-62
2021/10/13 01:57:49;;;;;;;1.83;1.00;;;;;;;;;;4511673;28;20087;-62
2021/10/13 02:00:04;;;;;;;1.95;1.10;;;;;;;;;;4519716;28;20623;-62
2021/10/13 02:02:15;;;;;;;2.15;1.00;;;;;;;;;;4525408;28;20034;-62
2021/10/13 02:04:27;;;;;;;2.27;1.20;;;;;;;;;;4527837;28;20025;-62
2021/10/13 02:06:40;;;;;;;2.83;1.20;;;;;;;;;;4511837;28;20265;-62
2021/10/13 02:08:53;;;;;;;3.00;1.00;;;;;;;;;;4521156;28;20037;-61
2021/10/13 02:11:04;;;;;;;1.00;0.85;;;;;;;;;;4498161;28;20344;-62
2021/10/13 02:13:16;;;;;;;2.08;1.10;;;;;;;;;;4526004;28;28144;-61
2021/10/13 02:15:28;;;;;;;1.38;1.00;;;;;;;;;;4526974;28;20562;-62
2021/10/13 02:17:40;;;;;;;1.85;0.95;;;;;;;;;;4520588;28;20034;-62
2021/10/13 02:19:51;;;;;;;2.13;1.00;;;;;;;;;;4511281;28;20038;-63
2021/10/13 02:22:02;;;;;;;1.17;0.97;;;;;;;;;;4520737;28;20068;-62
2021/10/13 02:24:15;;;;;;;1.70;0.90;;;;;;;;;;4496743;28;20032;-62
2021/10/13 02:26:31;;;;;;;2.90;0.88;;;;;;;;;;4526239;28;20036;-62
2021/10/13 02:28:53;;;;;;;1.83;0.90;;;;;;;;;;4527293;28;20577;-62
2021/10/13 02:31:03;;;;;;;2.38;1.00;;;;;;;;;;4510741;28;20605;-62
2021/10/13 02:33:13;;;;;;;1.90;0.90;;;;;;;;;;4528387;28;20520;-62
2021/10/13 02:35:24;;;;;;;1.93;1.00;;;;;;;;;;4526590;28;26114;-62
2021/10/13 02:37:35;;;;;;;2.93;1.23;;;;;;;;;;4526514;28;29850;-62
2021/10/13 02:39:45;;;;;;;2.93;1.10;;;;;;;;;;4511117;28;20120;-62
2021/10/13 02:41:55;;;;;;;0.83;0.70;;;;;;;;;;4528032;28;20033;-62
2021/10/13 02:44:07;;;;;;;2.17;1.30;;;;;;;;;;4509343;28;20034;-62
2021/10/13 02:46:34;;;;;;;1.70;1.02;;;;;;;;;;4516216;28;21429;-62
2021/10/13 02:48:48;;;;;;;1.60;1.08;;;;;;;;;;4506985;28;20077;-62
2021/10/13 02:51:21;;;;;;;2.30;0.93;;;;;;;;;;4514473;28;21357;-62
2021/10/13 02:53:36;;;;;;;3.05;1.27;;;;;;;;;;4529475;28;20048;-62
2021/10/13 02:55:56;;;;;;;2.38;1.10;;;;;;;;;;4530041;28;20036;-62
2021/10/13 02:58:25;;;;;;;2.58;1.10;;;;;;;;;;4512260;28;20038;-62
2021/10/13 03:00:36;;;;;;;1.17;0.95;;;;;;;;;;4530726;28;20116;-62
2021/10/13 03:02:56;;;;;;;2.13;1.10;;;;;;;;;;4533401;28;20056;-62
2021/10/13 03:05:07;;;;;;;2.42;1.02;;;;;;;;;;4512691;28;20041;-62
2021/10/13 03:07:21;;;;;;;2.15;1.20;;;;;;;;;;4513735;28;20037;-62
2021/10/13 03:09:33;;;;;;;1.20;1.00;;;;;;;;;;4516564;28;20033;-62
2021/10/13 03:11:44;;;;;;;1.00;0.82;;;;;;;;;;4530057;28;20037;-62
2021/10/13 03:13:55;;;;;;;1.47;0.83;;;;;;;;;;4528887;28;27037;-62
2021/10/13 03:16:07;;;;;;;2.13;1.20;;;;;;;;;;4516125;28;20042;-62
2021/10/13 03:18:17;;;;;;;1.27;0.82;;;;;;;;;;4517565;28;20034;-61
2021/10/13 03:20:29;;;;;;;1.63;1.00;;;;;;;;;;4511350;28;20038;-62
2021/10/13 03:22:39;;;;;;;3.72;1.40;;;;;;;;;;4531411;28;20034;-62
2021/10/13 03:24:50;;;;;;;2.07;0.90;;;;;;;;;;4513608;28;20037;-62
2021/10/13 03:27:00;;;;;;;1.77;1.00;;;;;;;;;;4514745;28;20075;-62
2021/10/13 03:29:11;;;;;;;2.03;0.93;;;;;;;;;;4530445;28;20091;-62
2021/10/13 03:31:22;;;;;;;2.10;1.13;;;;;;;;;;4529611;28;20041;-61
2021/10/13 03:33:38;;;;;;;2.23;1.10;;;;;;;;;;4530689;28;20046;-61
2021/10/13 03:35:49;;;;;;;1.73;1.00;;;;;;;;;;4530792;28;20120;-61
2021/10/13 03:38:01;;;;;;;1.02;0.70;;;;;;;;;;4529936;28;20560;-62
2021/10/13 03:40:11;;;;;;;2.13;1.05;;;;;;;;;;4529787;28;20136;-61
2021/10/13 03:42:22;;;;;;;2.80;1.10;;;;;;;;;;4529632;28;20033;-62
2021/10/13 03:44:32;;;;;;;1.80;0.90;;;;;;;;;;4529957;28;20227;-62
2021/10/13 03:46:43;;;;;;;1.13;0.90;;;;;;;;;;4529834;28;20053;-61
2021/10/13 03:48:54;;;;;;;2.03;1.08;;;;;;;;;;4528995;28;25259;-62
2021/10/13 03:51:04;;;;;;;2.10;1.07;;;;;;;;;;4529048;28;20048;-62
2021/10/13 03:53:14;;;;;;;1.13;0.90;;;;;;;;;;4510165;28;23497;-62
2021/10/13 03:55:25;;;;;;;2.97;1.33;;;;;;;;;;4528546;28;20129;-61
2021/10/13 03:57:36;;;;;;;1.67;1.07;;;;;;;;;;4529522;28;28242;-62
2021/10/13 03:59:46;;;;;;;2.47;1.30;;;;;;;;;;4531392;28;20064;-62
2021/10/13 04:01:56;;;;;;;2.30;1.23;;;;;;;;;;4529659;28;20033;-62
2021/10/13 04:04:07;;;;;;;1.93;1.00;;;;;;;;;;4529149;28;20044;-62
2021/10/13 04:06:17;;;;;;;2.03;1.10;;;;;;;;;;4529994;28;20040;-61
2021/10/13 04:08:28;;;;;;;2.10;1.20;;;;;;;;;;4529424;28;25036;-62
2021/10/13 04:10:38;;;;;;;2.70;1.23;;;;;;;;;;4530613;28;20160;-62
2021/10/13 04:12:49;;;;;;;2.30;1.10;;;;;;;;;;4528970;28;20044;-62
2021/10/13 04:14:59;;;;;;;3.13;1.37;;;;;;;;;;4530339;28;20040;-62
2021/10/13 04:17:10;;;;;;;3.47;1.40;;;;;;;;;;4529032;28;20033;-61
2021/10/13 04:19:20;;;;;;;2.33;1.37;;;;;;;;;;4529640;28;20033;-62
2021/10/13 04:21:31;;;;;;;2.30;1.20;;;;;;;;;;4510793;28;20073;-61
2021/10/13 04:23:41;;;;;;;1.93;1.33;;;;;;;;;;4529022;28;20116;-62
2021/10/13 04:25:51;;;;;;;2.40;1.57;;;;;;;;;;4528974;28;20057;-62
2021/10/13 04:28:02;;;;;;;2.00;1.00;;;;;;;;;;4511160;28;20454;-62
2021/10/13 04:30:12;;;;;;;1.57;0.97;;;;;;;;;;4530497;28;20080;-61
2021/10/13 04:32:23;;;;;;;2.17;1.20;;;;;;;;;;4510799;28;20137;-62
2021/10/13 04:34:34;;;;;;;1.63;1.20;;;;;;;;;;4529439;28;20514;-62
2021/10/13 04:36:44;;;;;;;1.67;1.00;;;;;;;;;;4527922;28;20223;-62
2021/10/13 04:38:55;;;;;;;1.40;1.00;;;;;;;;;;4512045;28;20034;-62
2021/10/13 04:41:05;;;;;;;3.20;1.40;;;;;;;;;;4495227;28;20158;-61
2021/10/13 04:43:15;;;;;;;2.77;1.50;;;;;;;;;;4529968;28;20030;-62
2021/10/13 04:45:28;;;;;;;2.80;1.30;;;;;;;;;;4529405;28;20402;-62
2021/10/13 04:47:38;;;;;;;1.70;1.20;;;;;;;;;;4521059;28;20474;-61
2021/10/13 04:49:49;;;;;;;3.17;1.50;;;;;;;;;;4529122;28;20049;-62
2021/10/13 04:51:59;;;;;;;1.73;1.27;;;;;;;;;;4509264;28;20041;-62
2021/10/13 04:54:10;;;;;;;2.63;1.33;;;;;;;;;;4529906;28;20033;-61
2021/10/13 04:56:20;;;;;;;2.47;1.20;;;;;;;;;;4530093;28;20040;-61
2021/10/13 04:58:30;;;;;;;2.57;1.40;;;;;;;;;;4515855;28;20560;-62
2021/10/13 05:00:41;;;;;;;2.63;1.37;;;;;;;;;;4528752;28;20107;-62
2021/10/13 05:02:53;;;;;;;2.73;1.43;;;;;;;;;;4528002;28;20041;-61
2021/10/13 05:05:04;;;;;;;2.60;1.50;;;;;;;;;;4529303;28;20103;-62
2021/10/13 05:07:15;;;;;;;4.25;1.70;;;;;;;;;;4530358;28;20992;-62
2021/10/13 05:09:26;;;;;;;;;;;;;;;;;;4528860;28;20040;-62
2021/10/13 05:11:36;;;;;;;2.28;1.30;;;;;;;;;;4529411;28;19949;-62
2021/10/13 05:13:46;;;;;;;3.10;1.40;;;;;;;;;;4510491;28;20034;-64
2021/10/13 05:15:57;;;;;;;1.93;1.20;;;;;;;;;;4509683;28;20706;-63
2021/10/13 05:18:08;;;;;;;2.03;1.43;;;;;;;;;;4528330;28;35793;-63
2021/10/13 05:20:19;;;;;;;2.17;1.30;;;;;;;;;;4514795;28;20038;-63
2021/10/13 05:22:29;;;;;;;3.07;1.60;;;;;;;;;;4529055;28;20040;-63
2021/10/13 05:24:40;;;;;;;2.77;1.20;;;;;;;;;;4528188;28;20041;-63
2021/10/13 05:26:50;;;;;;;4.43;1.80;;;;;;;;;;4529415;28;20076;-63
2021/10/13 05:29:01;;;;;;;2.27;1.40;;;;;;;;;;4511430;28;20144;-63
2021/10/13 05:31:11;;;;;;;2.63;1.30;;;;;;;;;;4529559;28;20045;-62
2021/10/13 05:33:21;;;;;;;3.00;1.40;;;;;;;;;;4529599;28;20508;-62
2021/10/13 05:35:32;;;;;;;2.30;1.30;;;;;;;;;;4528440;28;20033;-63
2021/10/13 05:37:42;;;;;;;1.60;1.20;;;;;;;;;;4528808;28;20032;-63
2021/10/13 05:39:53;;;;;;;1.30;1.10;;;;;;;;;;4527524;28;20424;-62
2021/10/13 05:42:03;;;;;;;1.47;1.00;;;;;;;;;;4527562;28;20051;-63
2021/10/13 05:44:14;;;;;;;2.92;1.30;;;;;;;;;;4521192;28;20149;-63
2021/10/13 05:46:24;;;;;;;2.93;1.57;;;;;;;;;;4526864;28;27355;-61
2021/10/13 05:48:35;;;;;;;2.40;1.30;;;;;;;;;;4528424;28;20619;-60
2021/10/13 05:50:46;;;;;;;2.40;1.40;;;;;;;;;;4527789;28;33815;-61
2021/10/13 05:52:57;;;;;;;2.00;1.25;;;;;;;;;;4528045;28;20785;-61
2021/10/13 05:55:07;;;;;;;3.40;1.40;;;;;;;;;;4527618;28;20036;-63
2021/10/13 05:57:18;;;;;;;2.30;1.50;;;;;;;;;;4525583;28;20053;-63
2021/10/13 05:59:28;;;;;;;1.90;1.17;;;;;;;;;;4527045;28;20030;-63
2021/10/13 06:01:39;;;;;;;2.57;1.50;;;;;;;;;;4526540;28;20037;-62
2021/10/13 06:03:49;;;;;;;2.23;1.30;;;;;;;;;;4527445;28;20037;-63
2021/10/13 06:06:00;;;;;;;1.67;1.37;;;;;;;;;;4528020;28;20034;-63
2021/10/13 06:08:10;;;;;;;2.37;1.20;;;;;;;;;;4528029;28;21322;-63
2021/10/13 06:10:21;;;;;;;2.70;1.30;;;;;;;;;;4526224;28;20045;-63
2021/10/13 06:12:31;;;;;;;2.63;1.40;;;;;;;;;;4526009;28;20091;-63
2021/10/13 06:14:41;;;;;;;1.73;1.10;;;;;;;;;;4526609;28;20101;-63
2021/10/13 06:16:52;;;;;;;2.30;1.20;;;;;;;;;;4525386;28;24628;-63
2021/10/13 06:19:02;;;;;;;2.40;1.10;;;;;;;;;;4513417;28;20036;-63
2021/10/13 06:21:13;;;;;;;3.70;1.43;;;;;;;;;;4503692;28;20038;-62
2021/10/13 06:23:23;;;;;;;3.07;1.30;;;;;;;;;;4530560;28;20037;-63
2021/10/13 06:25:34;;;;;;;2.93;1.90;;;;;;;;;;4528151;28;20040;-63
2021/10/13 06:27:44;;;;;;;2.50;1.30;;;;;;;;;;4529582;28;20044;-62
2021/10/13 06:29:55;;;;;;;2.23;1.47;;;;;;;;;;4528266;28;20033;-62
2021/10/13 06:32:05;;;;;;;3.47;1.60;;;;;;;;;;4530216;28;25593;-62
2021/10/13 06:34:16;;;;;;;2.37;1.50;;;;;;;;;;4529859;28;20474;-63
2021/10/13 06:36:26;;;;;;;2.50;1.37;;;;;;;;;;4529872;28;20064;-62
2021/10/13 06:38:37;;;;;;;1.83;1.30;;;;;;;;;;4529517;28;20041;-62
2021/10/13 06:40:47;;;;;;;2.40;1.50;;;;;;;;;;4529365;28;20033;-62
2021/10/13 06:43:00;;;;;;;3.60;1.40;;;;;;;;;;4531463;28;20048;-63
2021/10/13 06:45:11;;;;;;;3.03;1.45;;;;;;;;;;4529713;28;20036;-62
2021/10/13 06:47:21;;;;;;;3.40;1.63;;;;;;;;;;4512705;28;20833;-62
2021/10/13 06:49:32;;;;;;;2.77;1.30;;;;;;;;;;4529591;28;20115;-62
2021/10/13 06:51:42;;;;;;;1.83;1.27;;;;;;;;;;4528577;28;20025;-62
2021/10/13 06:53:52;;;;;;;2.10;1.20;;;;;;;;;;4528585;28;20033;-62
2021/10/13 06:56:03;;;;;;;1.63;1.33;;;;;;;;;;4528311;28;20456;-62
2021/10/13 06:58:14;;;;;;;1.90;1.30;;;;;;;;;;4528229;28;20509;-62
2021/10/13 07:00:24;;;;;;;2.17;1.50;;;;;;;;;;4511277;28;20037;-62
2021/10/13 07:02:35;;;;;;;2.37;1.40;;;;;;;;;;4522012;28;20041;-62
2021/10/13 07:04:45;;;;;;;3.07;1.70;;;;;;;;;;4530068;28;20066;-62
2021/10/13 07:06:55;;;;;;;2.40;1.67;;;;;;;;;;4529119;28;20038;-62
2021/10/13 07:09:07;;;;;;;2.67;1.70;;;;;;;;;;4528513;28;20583;-62
2021/10/13 07:11:19;;;;;;;2.60;1.70;;;;;;;;;;4529895;28;20044;-62
2021/10/13 07:13:29;;;;;;;3.05;1.88;;;;;;;;;;4528664;28;20065;-62
2021/10/13 07:15:40;;;;;;;3.47;2.00;;;;;;;;;;4493924;28;20046;-62
2021/10/13 07:17:50;;;;;;;3.57;1.80;;;;;;;;;;4527664;28;20033;-62
2021/10/13 07:20:04;;;;;;;3.87;1.77;;;;;;;;;;4516610;28;20156;-61
2021/10/13 07:22:15;;;;;;;3.90;1.70;;;;;;;;;;4528813;28;20021;-62
2021/10/13 07:24:26;;;;;;;;;;;;;;;;;;4528844;28;20606;-62
2021/10/13 07:26:36;;;;;;;3.85;1.90;;;;;;;;;;4530678;28;19940;-62
2021/10/13 07:28:47;;;;;;;3.70;2.27;;;;;;;;;;4528649;28;20036;-62
2021/10/13 07:30:57;;;;;;;4.00;1.77;;;;;;;;;;4512806;28;20104;-62
2021/10/13 07:33:08;;;;;;;3.53;1.60;;;;;;;;;;4527386;28;20034;-62
2021/10/13 07:35:21;;;;;;;3.70;1.90;;;;;;;;;;4528305;28;20080;-61
2021/10/13 07:37:32;;;;;;;3.08;1.85;;;;;;;;;;4515234;28;20120;-62
2021/10/13 07:39:42;;;;;;;3.85;2.00;;;;;;;;;;4512342;28;20065;-62
2021/10/13 07:41:53;;;;;;;4.20;2.10;;;;;;;;;;4520793;28;20029;-62
2021/10/13 07:44:03;;;;;;;2.47;1.80;;;;;;;;;;4530679;28;20037;-62
2021/10/13 07:46:14;;;;;;;4.03;1.90;;;;;;;;;;4529439;28;20065;-62
2021/10/13 07:48:25;;;;;;;3.53;1.88;;;;;;;;;;4529995;28;20065;-62
2021/10/13 07:50:35;;;;;;;4.57;2.20;;;;;;;;;;4493548;28;20051;-60
2021/10/13 07:52:46;;;;;;;4.13;2.20;;;;;;;;;;4527380;28;20072;-62
2021/10/13 07:54:56;;;;;;;3.23;2.13;;;;;;;;;;4527911;28;20057;-61
2021/10/13 07:57:07;;;;;;;2.70;1.90;;;;;;;;;;4527326;28;20065;-61
2021/10/13 07:59:17;;;;;;;3.40;1.90;;;;;;;;;;4529248;28;20037;-61
2021/10/13 08:01:28;;;;;;;3.30;2.10;;;;;;;;;;4526943;28;20149;-61
2021/10/13 08:03:40;;;;;;;3.77;2.27;;;;;;;;;;4507785;28;20355;-61
2021/10/13 08:05:50;;;;;;;4.15;2.20;;;;;;;;;;4528002;28;20891;-60
2021/10/13 08:08:01;;;;;;;3.20;2.00;;;;;;;;;;4527190;28;31554;-62
2021/10/13 08:10:11;;;;;;;3.40;2.10;;;;;;;;;;4528208;28;20046;-68
2021/10/13 08:12:22;;;;;;;3.17;2.20;;;;;;;;;;4510765;28;20041;-67
2021/10/13 08:14:32;;;;;;;2.00;0.57;;;;;;;;;;4527292;28;20593;-67
2021/10/13 08:16:43;;;;;;;0.87;0.60;;;;;;;;;;4528136;28;20026;-69
2021/10/13 08:18:53;;;;;;;2.63;1.90;;;;;;;;;;4514910;28;20042;-69
2021/10/13 08:21:04;;;;;;;2.47;0.70;;;;;;;;;;4527382;28;20034;-60
2021/10/13 08:23:14;;;;;;;1.80;0.60;;;;;;;;;;4510281;28;20038;-60
2021/10/13 08:25:25;;;;;;;6.13;0.73;;;;;;;;;;4528871;28;20115;-61
2021/10/13 08:27:35;;;;;;;2.00;1.03;;;;;;;;;;4529591;28;20085;-60
2021/10/13 08:29:46;;;;;;;1.80;0.67;;;;;;;;;;4527880;28;20160;-60
2021/10/13 08:31:56;;;;;;;2.17;0.70;;;;;;;;;;4528923;28;20033;-60
2021/10/13 08:34:07;;;;;;;2.00;0.70;;;;;;;;;;4526906;28;20029;-60
2021/10/13 08:36:17;;;;;;;1.43;0.60;;;;;;;;;;4529301;28;20048;-60
2021/10/13 08:38:28;;;;;;;2.23;0.70;;;;;;;;;;4527438;28;20037;-60
2021/10/13 08:40:39;;;;;;;2.10;0.70;;;;;;;;;;4527702;28;20034;-60
2021/10/13 08:42:59;;;;;;;1.90;0.60;;;;;;;;;;4514062;28;20069;-61
2021/10/13 08:45:10;;;;;;;1.70;0.60;;;;;;;;;;4528289;28;20037;-60
2021/10/13 08:47:20;;;;;;;1.10;0.53;;;;;;;;;;4529116;28;20033;-60
2021/10/13 08:49:31;;;;;;;0.43;0.40;;;;;;;;;;4511398;28;20037;-60
2021/10/13 08:51:41;;;;;;;2.63;1.43;;;;;;;;;;4528632;28;20044;-60
2021/10/13 08:53:52;;;;;;;2.83;1.70;;;;;;;;;;4519590;28;20844;-60
2021/10/13 08:56:02;;;;;;;2.40;1.60;;;;;;;;;;4528680;28;20087;-61
2021/10/13 08:58:21;;;;;;;3.57;2.10;;;;;;;;;;4528591;28;20042;-59
2021/10/13 09:00:32;;;;;;;3.13;1.88;;;;;;;;;;4512707;28;20034;-60
2021/10/13 09:02:45;;;;;;;3.13;1.70;;;;;;;;;;4526291;28;20030;-61
2021/10/13 09:05:13;;;;;;;2.78;1.70;;;;;;;;;;4528039;28;20038;-60
2021/10/13 09:07:23;;;;;;;3.28;1.65;;;;;;;;;;4508917;28;20048;-61
2021/10/13 09:09:47;;;;;;;3.63;1.83;;;;;;;;;;4526950;28;20607;-60
2021/10/13 09:11:58;;;;;;;2.90;1.65;;;;;;;;;;4514436;28;20112;-61
2021/10/13 09:14:29;;;;;;;3.15;1.67;;;;;;;;;;4511684;28;20060;-60
2021/10/13 09:16:56;;;;;;;2.87;1.60;;;;;;;;;;4525562;28;20683;-61
2021/10/13 09:19:07;;;;;;;2.88;1.60;;;;;;;;;;4527057;28;20040;-60
2021/10/13 09:21:17;;;;;;;2.47;1.50;;;;;;;;;;4527935;28;20032;-61
2021/10/13 09:23:30;;;;;;;3.83;1.90;;;;;;;;;;4527483;28;20049;-60
2021/10/13 09:25:42;;;;;;;2.92;1.60;;;;;;;;;;4528241;28;20033;-60
2021/10/13 09:27:52;;;;;;;;;;;;;;;;;;4529062;28;20196;-61
2021/10/13 09:30:08;;;;;;;3.35;1.60;;;;;;;;;;4502808;28;19979;-60
2021/10/13 09:32:22;;;;;;;2.85;1.67;;;;;;;;;;4515372;28;20036;-60
2021/10/13 09:34:33;;;;;;;3.67;1.70;;;;;;;;;;4509909;28;20041;-60
2021/10/13 09:36:45;;;;;;;3.57;1.67;;;;;;;;;;4510376;28;20033;-62
2021/10/13 09:38:55;;;;;;;2.80;1.58;;;;;;;;;;4527144;28;20041;-60
2021/10/13 09:41:06;;;;;;;3.67;1.60;;;;;;;;;;4526271;28;20265;-61
2021/10/13 09:43:37;;;;;;;3.93;1.90;;;;;;;;;;4527025;28;32022;-60
2021/10/13 09:46:00;;;;;;;1.80;1.15;;;;;;;;;;4508340;28;20038;-60
2021/10/13 09:48:10;;;;;;;2.22;1.35;;;;;;;;;;4508758;28;20861;-60
2021/10/13 09:50:21;;;;;;;2.83;1.67;;;;;;;;;;4525771;28;20054;-60
2021/10/13 09:52:32;;;;;;;2.83;1.63;;;;;;;;;;4525601;28;20072;-60
2021/10/13 09:54:46;;;;;;;3.28;1.40;;;;;;;;;;4507301;28;20037;-61
2021/10/13 09:56:56;;;;;;;2.80;1.30;;;;;;;;;;4526037;28;20138;-60
2021/10/13 09:59:08;;;;;;;3.03;1.37;;;;;;;;;;4512737;28;20161;-60
2021/10/13 10:01:22;;;;;;;2.45;1.42;;;;;;;;;;4526256;28;20029;-61
2021/10/13 10:03:35;;;;;;;4.10;1.48;;;;;;;;;;4505149;28;20072;-60
2021/10/13 10:05:45;;;;;;;2.45;1.15;;;;;;;;;;4527713;28;20037;-60
2021/10/13 10:08:03;;;;;;;3.07;1.40;;;;;;;;;;4495354;28;20038;-60
2021/10/13 10:10:17;;;;;;;2.47;1.45;;;;;;;;;;4508777;28;20649;-60
2021/10/13 10:12:27;;;;;;;3.85;1.20;;;;;;;;;;4510926;28;20021;-60
2021/10/13 10:14:41;;;;;;;2.80;1.23;;;;;;;;;;4509745;28;20041;-60
2021/10/13 10:16:51;;;;;;;4.07;1.17;;;;;;;;;;4509079;28;20038;-60
2021/10/13 10:19:25;;;;;;;3.07;1.37;;;;;;;;;;4527029;28;20565;-60
2021/10/13 10:21:58;;;;;;;2.42;1.10;;;;;;;;;;4526846;28;20571;-60
2021/10/13 10:24:26;;;;;;;3.08;1.30;;;;;;;;;;4526614;28;20081;-62
2021/10/13 10:26:37;;;;;;;1.90;1.10;;;;;;;;;;4524225;28;20041;-61
2021/10/13 10:28:54;;;;;;;2.57;1.30;;;;;;;;;;4526404;28;20033;-61
2021/10/13 10:31:26;;;;;;;2.85;1.20;;;;;;;;;;4512098;28;20797;-62
2021/10/13 10:33:47;;;;;;;2.15;1.20;;;;;;;;;;4521771;28;20156;-61
2021/10/13 10:36:07;;;;;;;1.98;1.10;;;;;;;;;;4525416;28;20126;-61
2021/10/13 10:38:19;;;;;;;2.40;1.10;;;;;;;;;;4509532;28;20154;-62
2021/10/13 10:40:34;;;;;;;1.63;0.98;;;;;;;;;;4528015;28;20064;-61
2021/10/13 10:42:51;;;;;;;1.60;1.00;;;;;;;;;;4526327;28;20184;-61
2021/10/13 10:45:11;;;;;;;1.95;1.15;;;;;;;;;;4528098;28;20553;-62
2021/10/13 10:47:22;;;;;;;2.97;1.35;;;;;;;;;;4528376;28;20072;-62
2021/10/13 10:49:54;;;;;;;3.87;1.17;;;;;;;;;;4526513;28;20104;-61
2021/10/13 10:52:05;;;;;;;2.17;1.20;;;;;;;;;;4526598;28;20503;-62
2021/10/13 10:54:32;;;;;;;2.42;0.90;;;;;;;;;;4526991;28;20056;-61
2021/10/13 10:56:44;;;;;;;2.35;0.90;;;;;;;;;;4519248;28;20034;-62
2021/10/13 10:59:00;;;;;;;1.17;0.63;;;;;;;;;;4528384;28;20044;-62
2021/10/13 11:01:12;;;;;;;2.05;0.80;;;;;;;;;;4519830;28;20104;-61
2021/10/13 11:03:28;;;;;;;4.22;0.98;;;;;;;;;;4518852;28;20590;-61
2021/10/13 11:05:39;;;;;;;1.27;0.80;;;;;;;;;;4512499;28;20042;-62
2021/10/13 11:07:50;;;;;;;1.37;0.70;;;;;;;;;;4511959;28;20034;-62
2021/10/13 11:10:06;;;;;;;2.17;0.80;;;;;;;;;;4530563;28;20048;-61
2021/10/13 11:12:17;;;;;;;2.55;1.05;;;;;;;;;;4530195;28;20055;-62
2021/10/13 11:14:27;;;;;;;1.50;0.70;;;;;;;;;;4528486;28;20037;-62
2021/10/13 11:16:47;;;;;;;1.70;0.80;;;;;;;;;;4530388;28;32488;-62
2021/10/13 11:19:31;;;;;;;2.67;0.88;;;;;;;;;;4513005;28;20029;-62
2021/10/13 11:21:42;;;;;;;1.65;0.90;;;;;;;;;;4496429;28;21217;-62
2021/10/13 11:23:58;;;;;;;2.97;1.20;;;;;;;;;;4510561;28;20037;-62
2021/10/13 11:26:08;;;;;;;3.05;1.13;;;;;;;;;;4529873;28;20037;-62
2021/10/13 11:28:19;;;;;;;1.80;0.90;;;;;;;;;;4529700;28;20037;-62
2021/10/13 11:30:36;;;;;;;2.67;0.93;;;;;;;;;;4522180;28;20048;-62
2021/10/13 11:32:46;;;;;;;2.03;0.80;;;;;;;;;;4521965;28;20025;-62
2021/10/13 11:35:00;;;;;;;2.50;0.80;;;;;;;;;;4529116;28;20069;-62
2021/10/13 11:37:11;;;;;;;1.90;0.68;;;;;;;;;;4529485;28;20084;-62
2021/10/13 11:39:28;;;;;;;1.40;0.80;;;;;;;;;;4529504;28;20121;-62
2021/10/13 11:41:39;;;;;;;1.13;0.60;;;;;;;;;;4529026;28;20038;-62
2021/10/13 11:43:50;;;;;;;2.92;0.80;;;;;;;;;;4510255;28;20064;-62
2021/10/13 11:46:01;;;;;;;1.63;0.60;;;;;;;;;;4514074;28;20033;-62
2021/10/13 11:48:11;;;;;;;;;;;;;;;;;;4517494;28;20041;-62
2021/10/13 11:50:22;;;;;;;1.45;0.60;;;;;;;;;;4530949;28;19924;-62
2021/10/13 11:52:35;;;;;;;1.30;0.53;;;;;;;;;;4529352;28;20036;-62
2021/10/13 11:54:45;;;;;;;3.05;0.73;;;;;;;;;;4527220;28;20037;-63
2021/10/13 11:56:56;;;;;;;0.83;0.57;;;;;;;;;;4529288;28;20033;-62
2021/10/13 11:59:11;;;;;;;1.90;0.67;;;;;;;;;;4528299;28;20500;-62
2021/10/13 12:01:26;;;;;;;1.52;0.50;;;;;;;;;;4515639;28;20576;-62
2021/10/13 12:03:37;;;;;;;1.38;0.70;;;;;;;;;;4528677;28;20037;-62
2021/10/13 12:05:54;;;;;;;2.22;0.70;;;;;;;;;;4521160;28;20042;-62
2021/10/13 12:08:10;;;;;;;1.55;0.80;;;;;;;;;;4512377;28;20501;-62
2021/10/13 12:10:32;;;;;;;1.60;0.60;;;;;;;;;;4510559;28;21001;-62
2021/10/13 12:13:00;;;;;;;3.65;0.80;;;;;;;;;;4531154;28;20605;-62
2021/10/13 12:15:19;;;;;;;1.15;0.65;;;;;;;;;;4513659;28;20037;-62
2021/10/13 12:17:31;;;;;;;1.73;0.88;;;;;;;;;;4529493;28;20040;-63
2021/10/13 12:19:42;;;;;;;1.20;0.52;;;;;;;;;;4527948;28;20041;-62
2021/10/13 12:21:57;;;;;;;2.00;0.57;;;;;;;;;;4515817;28;20018;-62
2021/10/13 12:24:07;;;;;;;1.17;0.60;;;;;;;;;;4527669;28;20041;-62
2021/10/13 12:26:21;;;;;;;1.33;0.70;;;;;;;;;;4528691;28;20052;-63
2021/10/13 12:28:31;;;;;;;2.28;0.80;;;;;;;;;;4514785;28;20526;-63
2021/10/13 12:30:43;;;;;;;1.30;0.70;;;;;;;;;;4529304;28;20053;-62
2021/10/13 12:33:04;;;;;;;1.52;0.70;;;;;;;;;;4527416;28;20614;-62
2021/10/13 12:35:15;;;;;;;1.05;0.70;;;;;;;;;;4529855;28;20083;-62
2021/10/13 12:37:25;;;;;;;1.33;0.80;;;;;;;;;;4527899;28;20788;-62
2021/10/13 12:39:36;;;;;;;5.87;1.20;;;;;;;;;;4526434;28;20029;-62
2021/10/13 12:41:48;;;;;;;1.57;0.60;;;;;;;;;;4526670;28;20654;-62
2021/10/13 12:43:59;;;;;;;0.93;0.60;;;;;;;;;;4526035;28;20064;-62
2021/10/13 12:46:30;;;;;;;1.13;0.70;;;;;;;;;;4528981;28;20504;-62
2021/10/13 12:48:41;;;;;;;2.17;0.60;;;;;;;;;;4510958;28;20121;-62
2021/10/13 12:51:08;;;;;;;1.90;0.70;;;;;;;;;;4528844;28;20056;-62
2021/10/13 12:53:19;;;;;;;1.80;0.80;;;;;;;;;;4530359;28;20060;-61
2021/10/13 12:55:29;;;;;;;0.90;0.70;;;;;;;;;;4527327;28;20033;-63
2021/10/13 12:57:40;;;;;;;3.20;0.60;;;;;;;;;;4528205;28;24956;-62
2021/10/13 12:59:51;;;;;;;1.83;0.60;;;;;;;;;;4509695;28;20549;-62
2021/10/13 13:02:01;;;;;;;2.03;0.70;;;;;;;;;;4527761;28;20037;-62
2021/10/13 13:04:12;;;;;;;2.33;0.90;;;;;;;;;;4528580;28;20145;-63
2021/10/13 13:06:22;;;;;;;1.63;0.60;;;;;;;;;;4527307;28;20068;-63
2021/10/13 13:08:33;;;;;;;0.93;0.40;;;;;;;;;;4520847;28;20121;-63
2021/10/13 13:10:44;;;;;;;1.35;0.30;;;;;;;;;;4509162;28;20123;-63
2021/10/13 13:12:55;;;;;;;1.30;0.60;;;;;;;;;;4520747;28;20084;-63
2021/10/13 13:15:08;;;;;;;1.10;0.53;;;;;;;;;;4527184;28;20037;-62
2021/10/13 13:17:18;;;;;;;0.73;0.50;;;;;;;;;;4528399;28;20095;-63
2021/10/13 13:19:29;;;;;;;0.93;0.50;;;;;;;;;;4528933;28;20105;-63